createdAt,value
2022-08-16T00:01:06.247Z,3.00
2022-08-16T00:03:54.682Z,3.15
2022-08-16T00:06:42.539Z,3.20
2022-08-16T00:09:31.562Z,3.00
2022-08-16T00:12:23.088Z,2.95
2022-08-16T00:15:51.708Z,3.22
2022-08-16T00:18:33.639Z,3.13
2022-08-16T00:21:20.875Z,3.22
2022-08-16T00:24:12.146Z,3.03
2022-08-16T00:27:04.057Z,3.53
2022-08-16T00:30:08.700Z,3.40
2022-08-16T00:33:00.548Z,3.55
2022-08-16T00:35:47.795Z,3.28
2022-08-16T00:38:40.051Z,3.55
2022-08-16T00:41:32.041Z,3.22
2022-08-16T00:44:31.969Z,2.85
2022-08-16T00:47:22.166Z,3.03
2022-08-16T00:50:11.714Z,3.35
2022-08-16T00:52:59.676Z,3.22
2022-08-16T00:55:50.394Z,3.15
2022-08-16T00:58:43.967Z,3.50
2022-08-16T01:01:32.665Z,3.33
2022-08-16T01:04:30.318Z,3.53
2022-08-16T01:07:18.547Z,3.30
2022-08-16T01:10:15.812Z,3.30
2022-08-16T01:13:20.430Z,3.42
2022-08-16T01:16:14.016Z,3.40
2022-08-16T01:19:35.177Z,3.60
2022-08-16T01:22:48.646Z,3.90
2022-08-16T01:25:42.677Z,3.67
2022-08-16T01:28:34.706Z,3.30
2022-08-16T01:31:31.043Z,3.80
2022-08-16T01:34:25.347Z,3.15
2022-08-16T01:37:16.201Z,3.55
2022-08-16T01:40:07.149Z,3.60
2022-08-16T01:42:55.624Z,3.60
2022-08-16T01:45:44.454Z,3.42
2022-08-16T01:48:34.574Z,3.58
2022-08-16T01:51:25.183Z,3.47
2022-08-16T01:54:13.328Z,4.10
2022-08-16T01:57:11.839Z,4.20
2022-08-16T02:00:01.603Z,3.80
2022-08-16T02:02:52.305Z,3.85
2022-08-16T02:05:46.781Z,4.20
2022-08-16T02:08:39.499Z,3.85
2022-08-16T02:11:28.441Z,3.72
2022-08-16T02:14:39.214Z,3.63
2022-08-16T02:17:28.455Z,3.78
2022-08-16T02:20:17.238Z,4.32
2022-08-16T02:23:05.862Z,3.90
2022-08-16T02:25:54.792Z,4.05
2022-08-16T02:28:46.983Z,4.80
2022-08-16T02:32:03.398Z,4.13
2022-08-16T02:34:42.641Z,3.78
2022-08-16T02:37:51.161Z,4.03
2022-08-16T02:40:39.723Z,4.10
2022-08-16T02:43:33.284Z,3.72
2022-08-16T02:46:29.990Z,4.15
2022-08-16T02:49:58.014Z,4.38
2022-08-16T02:52:31.541Z,4.18
2022-08-16T02:55:41.290Z,4.30
2022-08-16T02:58:32.522Z,4.20
2022-08-16T03:01:36.854Z,4.20
2022-08-16T03:04:52.331Z,4.05
2022-08-16T03:07:43.958Z,4.05
2022-08-16T03:10:39.416Z,4.53
2022-08-16T03:13:27.886Z,4.10
2022-08-16T03:16:32.867Z,4.38
2022-08-16T03:19:23.175Z,3.65
2022-08-16T03:22:11.533Z,4.43
2022-08-16T03:25:10.323Z,4.60
2022-08-16T03:27:59.916Z,4.65
2022-08-16T03:30:47.954Z,4.60
2022-08-16T03:33:36.638Z,4.55
2022-08-16T03:36:30.855Z,4.80
2022-08-16T03:39:24.605Z,5.07
2022-08-16T03:42:12.621Z,5.13
2022-08-16T03:45:09.034Z,4.60
2022-08-16T03:47:58.278Z,4.55
2022-08-16T03:50:59.912Z,5.15
2022-08-16T03:53:57.791Z,4.35
2022-08-16T03:56:56.695Z,4.90
2022-08-16T03:59:47.242Z,4.63
2022-08-16T04:02:35.488Z,4.43
2022-08-16T04:05:30.471Z,4.28
2022-08-16T04:08:23.758Z,4.68
2022-08-16T04:11:18.329Z,4.40
2022-08-16T04:14:33.128Z,4.68
2022-08-16T04:17:15.772Z,4.47
2022-08-16T04:20:23.209Z,4.72
2022-08-16T04:23:17.839Z,4.63
2022-08-16T04:26:07.577Z,4.32
2022-08-16T04:29:16.915Z,4.32
2022-08-16T04:32:11.960Z,4.40
2022-08-16T04:35:09.339Z,4.55
2022-08-16T04:38:20.919Z,4.20
2022-08-16T04:41:11.883Z,4.07
2022-08-16T04:44:00.700Z,4.30
2022-08-16T04:47:02.614Z,4.40
2022-08-16T04:49:52.267Z,4.20
2022-08-16T04:52:40.498Z,4.60
2022-08-16T04:55:31.846Z,4.47
2022-08-16T04:58:43.838Z,3.97
2022-08-16T05:01:57.597Z,4.65
2022-08-16T05:04:43.315Z,4.50
2022-08-16T05:07:30.572Z,4.65
2022-08-16T05:10:23.393Z,4.18
2022-08-16T05:13:15.637Z,4.07
2022-08-16T05:16:04.503Z,3.72
2022-08-16T05:18:58.383Z,4.00
2022-08-16T05:21:47.547Z,4.65
2022-08-16T05:24:34.830Z,4.30
2022-08-16T05:27:23.844Z,3.53
2022-08-16T05:30:35.337Z,3.85
2022-08-16T05:33:21.454Z,3.40
2022-08-16T05:36:14.272Z,3.88
2022-08-16T05:39:09.580Z,3.85
2022-08-16T05:41:58.309Z,3.60
2022-08-16T05:44:45.543Z,3.65
2022-08-16T05:47:43.251Z,3.75
2022-08-16T05:50:33.966Z,3.75
2022-08-16T05:53:24.398Z,3.53
2022-08-16T05:56:30.877Z,3.85
2022-08-16T05:59:19.007Z,3.55
2022-08-16T06:02:09.713Z,3.45
2022-08-16T06:04:58.235Z,3.25
2022-08-16T06:07:45.838Z,3.78
2022-08-16T06:11:02.689Z,3.30
2022-08-16T06:13:57.801Z,3.17
2022-08-16T06:16:55.950Z,3.53
2022-08-16T06:19:53.026Z,3.38
2022-08-16T06:22:40.315Z,3.35
2022-08-16T06:25:36.354Z,3.30
2022-08-16T06:28:35.674Z,3.60
2022-08-16T06:31:25.635Z,3.42
2022-08-16T06:34:55.828Z,3.50
2022-08-16T06:37:23.573Z,3.33
2022-08-16T06:40:12.998Z,3.42
2022-08-16T06:43:08.382Z,2.90
2022-08-16T06:46:31.753Z,3.10
2022-08-16T06:49:22.331Z,3.17
2022-08-16T06:52:58.047Z,3.45
2022-08-16T06:55:18.491Z,3.13
2022-08-16T06:58:22.389Z,3.28
2022-08-16T07:01:43.161Z,3.33
2022-08-16T07:04:33.299Z,3.40
2022-08-16T07:07:34.635Z,3.30
2022-08-16T07:10:25.615Z,3.20
2022-08-16T07:13:17.583Z,3.28
2022-08-16T07:16:20.777Z,3.13
2022-08-16T07:19:10.290Z,3.10
2022-08-16T07:22:03.551Z,3.40
2022-08-16T07:24:52.479Z,3.47
2022-08-16T07:27:41.029Z,3.10
2022-08-16T07:30:46.034Z,3.40
2022-08-16T07:33:52.985Z,3.10
2022-08-16T07:36:57.778Z,2.88
2022-08-16T07:39:48.811Z,3.47
2022-08-16T07:42:37.734Z,3.00
2022-08-16T07:45:26.120Z,3.08
2022-08-16T07:48:21.732Z,2.83
2022-08-16T07:51:13.775Z,3.22
2022-08-16T07:54:10.834Z,3.70
2022-08-16T07:57:05.258Z,3.30
2022-08-16T07:59:53.975Z,3.20
2022-08-16T08:02:47.553Z,3.28
2022-08-16T08:05:43.044Z,3.22
2022-08-16T08:08:49.515Z,3.63
2022-08-16T08:11:38.872Z,3.10
2022-08-16T08:17:42.157Z,3.35
2022-08-16T08:20:34.097Z,3.10
2022-08-16T08:23:25.563Z,3.13
2022-08-16T08:26:17.373Z,3.30
2022-08-16T08:29:08.497Z,3.33
2022-08-16T08:31:57.266Z,3.70
2022-08-16T08:34:46.778Z,3.90
2022-08-16T08:37:55.391Z,3.60
2022-08-16T08:40:46.462Z,3.58
2022-08-16T08:43:41.619Z,3.70
2022-08-16T08:46:35.712Z,3.72
2022-08-16T08:49:24.626Z,3.50
2022-08-16T08:52:34.557Z,3.30
2022-08-16T08:55:24.979Z,3.58
2022-08-16T08:58:19.186Z,3.58
2022-08-16T09:01:36.577Z,3.67
2022-08-16T09:04:31.296Z,3.70
2022-08-16T09:07:22.078Z,3.80
2022-08-16T09:10:20.704Z,3.40
2022-08-16T09:13:10.784Z,3.30
2022-08-16T09:16:06.817Z,3.08
2022-08-16T09:19:03.959Z,3.70
2022-08-16T09:21:56.053Z,3.30
2022-08-16T09:24:51.687Z,3.35
2022-08-16T09:27:57.063Z,3.20
2022-08-16T09:30:49.972Z,2.72
2022-08-16T09:33:39.759Z,3.15
2022-08-16T09:36:32.631Z,3.25
2022-08-16T09:39:21.628Z,3.30
2022-08-16T09:42:10.514Z,3.17
2022-08-16T09:45:10.644Z,2.85
2022-08-16T09:48:03.830Z,3.03
2022-08-16T09:50:51.023Z,3.05
2022-08-16T09:53:43.539Z,2.97
2022-08-16T09:56:33.733Z,2.80
2022-08-16T09:59:25.492Z,3.38
2022-08-16T10:02:27.561Z,2.90
2022-08-16T10:05:15.400Z,3.10
2022-08-16T10:08:25.815Z,3.25
2022-08-16T10:11:30.567Z,3.47
2022-08-16T10:14:19.892Z,3.20
2022-08-16T10:17:12.454Z,2.90
2022-08-16T10:20:01.055Z,3.10
2022-08-16T10:22:48.278Z,2.90
2022-08-16T10:27:17.378Z,2.80
2022-08-16T10:28:47.763Z,3.20
2022-08-16T10:31:44.227Z,3.17
2022-08-16T10:35:00.118Z,3.00
2022-08-16T10:37:48.202Z,2.80
2022-08-16T10:40:45.545Z,2.83
2022-08-16T10:43:35.576Z,2.70
2022-08-16T10:46:33.611Z,2.90
2022-08-16T10:49:31.272Z,3.10
2022-08-16T10:52:24.300Z,2.70
2022-08-16T10:58:20.407Z,3.00
2022-08-16T11:01:43.447Z,3.22
2022-08-16T11:05:05.543Z,3.10
2022-08-16T11:07:45.508Z,3.17
2022-08-16T11:11:04.568Z,3.03
2022-08-16T11:14:06.024Z,2.95
2022-08-16T11:17:09.140Z,2.90
2022-08-16T11:23:04.699Z,3.03
2022-08-16T11:26:07.652Z,3.25
2022-08-16T11:29:16.019Z,3.13
2022-08-16T11:32:05.745Z,2.88
2022-08-16T11:35:10.692Z,3.00
2022-08-16T11:38:47.121Z,3.08
2022-08-16T11:41:18.739Z,3.20
2022-08-16T11:44:07.344Z,2.72
2022-08-16T11:46:54.558Z,3.00
2022-08-16T11:49:42.481Z,3.38
2022-08-16T11:52:29.579Z,3.20
2022-08-16T11:55:17.819Z,3.10
2022-08-16T11:58:07.169Z,3.10
2022-08-16T12:00:57.447Z,2.93
2022-08-16T12:03:44.990Z,2.90
2022-08-16T12:06:33.737Z,3.03
2022-08-16T12:09:21.034Z,2.85
2022-08-16T12:12:09.794Z,2.72
2022-08-16T12:14:59.490Z,3.00
2022-08-16T12:17:48.516Z,2.35
2022-08-16T12:23:27.428Z,2.97
2022-08-16T12:26:15.271Z,3.03
2022-08-16T12:29:03.865Z,3.17
2022-08-16T12:31:59.229Z,3.00
2022-08-16T12:34:52.672Z,2.90
2022-08-16T12:37:42.527Z,3.28
2022-08-16T12:40:34.071Z,3.45
2022-08-16T12:43:23.600Z,3.20
2022-08-16T12:46:12.716Z,3.22
2022-08-16T12:49:01.789Z,3.25
2022-08-16T12:51:58.207Z,2.92
2022-08-16T12:54:54.907Z,2.72
2022-08-16T12:57:42.818Z,3.13
2022-08-16T13:00:33.150Z,3.20
2022-08-16T13:06:09.502Z,3.00
2022-08-16T13:09:02.335Z,2.92
2022-08-16T13:12:06.389Z,3.20
2022-08-16T13:14:55.990Z,3.00
2022-08-16T13:17:43.756Z,2.60
2022-08-16T13:20:31.770Z,3.03
2022-08-16T13:23:19.689Z,2.75
2022-08-16T13:26:07.918Z,2.63
2022-08-16T13:28:55.302Z,2.30
2022-08-16T13:31:42.705Z,2.28
2022-08-16T13:34:29.916Z,2.65
2022-08-16T13:37:17.606Z,2.45
2022-08-16T13:40:06.648Z,2.78
2022-08-16T13:42:57.134Z,2.95
2022-08-16T13:45:44.874Z,2.90
2022-08-16T13:48:42.599Z,2.85
2022-08-16T13:51:32.133Z,2.13
2022-08-16T13:54:19.421Z,2.67
2022-08-16T13:57:06.866Z,2.20
2022-08-16T13:59:59.149Z,2.47
2022-08-16T14:02:47.350Z,2.63
2022-08-16T14:05:36.165Z,2.45
2022-08-16T14:08:27.301Z,2.53
2022-08-16T14:11:15.116Z,2.50
2022-08-16T14:14:05.517Z,2.15
2022-08-16T14:16:53.324Z,1.70
2022-08-16T14:19:44.857Z,1.83
2022-08-16T14:22:42.375Z,2.10
2022-08-16T14:25:34.694Z,2.30
2022-08-16T14:28:23.606Z,2.20
2022-08-16T14:34:00.070Z,2.40
2022-08-16T14:36:52.072Z,2.67
2022-08-16T14:39:40.597Z,2.67
2022-08-16T14:42:29.238Z,2.53
2022-08-16T14:45:21.261Z,2.50
2022-08-16T14:48:08.941Z,2.50
2022-08-16T14:50:56.571Z,2.47
2022-08-16T14:53:45.219Z,2.15
2022-08-16T14:56:38.731Z,2.00
2022-08-16T14:59:30.173Z,2.63
2022-08-16T15:02:34.492Z,2.35
2022-08-16T15:05:26.245Z,2.50
2022-08-16T15:08:17.810Z,2.58
2022-08-16T15:11:07.994Z,2.45
2022-08-16T15:13:55.416Z,2.30
2022-08-16T15:16:43.332Z,2.38
2022-08-16T15:19:35.012Z,3.22
2022-08-16T15:22:30.611Z,2.40
2022-08-16T15:25:30.815Z,2.40
2022-08-16T15:28:31.267Z,2.45
2022-08-16T15:31:19.668Z,2.35
2022-08-16T15:34:07.636Z,2.78
2022-08-16T15:37:06.337Z,2.53
2022-08-16T15:39:53.946Z,2.42
2022-08-16T15:42:54.047Z,2.33
2022-08-16T15:46:00.459Z,2.40
2022-08-16T15:48:51.537Z,2.33
2022-08-16T15:51:39.277Z,2.55
2022-08-16T15:54:31.080Z,2.45
2022-08-16T15:57:26.112Z,2.53
2022-08-16T16:00:14.912Z,2.50
2022-08-16T16:03:15.714Z,2.70
2022-08-16T16:08:50.851Z,2.60
2022-08-16T16:11:39.031Z,2.50
2022-08-16T16:14:28.879Z,2.53
2022-08-16T16:17:18.472Z,2.85
2022-08-16T16:20:13.798Z,2.60
2022-08-16T16:23:10.335Z,2.38
2022-08-16T16:25:59.590Z,2.63
2022-08-16T16:29:08.764Z,2.60
2022-08-16T16:32:05.926Z,2.50
2022-08-16T16:34:53.658Z,2.55
2022-08-16T16:37:43.898Z,2.72
2022-08-16T16:40:35.226Z,2.33
2022-08-16T16:43:25.940Z,2.50
2022-08-16T16:46:32.767Z,2.30
2022-08-16T16:49:28.946Z,2.33
2022-08-16T16:52:31.309Z,2.50
2022-08-16T16:55:25.208Z,2.42
2022-08-16T16:58:36.422Z,2.60
2022-08-16T17:01:50.163Z,2.05
2022-08-16T17:04:40.017Z,2.60
2022-08-16T17:07:27.154Z,2.35
2022-08-16T17:10:46.421Z,2.60
2022-08-16T17:13:23.982Z,2.50
2022-08-16T17:16:18.541Z,2.60
2022-08-16T17:19:16.475Z,2.45
2022-08-16T17:22:14.414Z,2.45
2022-08-16T17:25:07.592Z,2.63
2022-08-16T17:30:45.292Z,2.50
2022-08-16T17:33:37.154Z,2.60
2022-08-16T17:36:40.565Z,2.60
2022-08-16T17:39:58.123Z,2.90
2022-08-16T17:42:52.467Z,2.80
2022-08-16T17:45:40.813Z,2.70
2022-08-16T17:48:31.131Z,2.63
2022-08-16T17:51:18.451Z,2.80
2022-08-16T17:54:06.714Z,3.22
2022-08-16T17:56:54.062Z,2.85
2022-08-16T17:59:41.646Z,2.83
2022-08-16T18:02:43.808Z,2.92
2022-08-16T18:05:38.310Z,2.72
2022-08-16T18:08:25.693Z,2.85
2022-08-16T18:11:25.662Z,3.15
2022-08-16T18:14:15.795Z,3.20
2022-08-16T18:17:03.060Z,2.85
2022-08-16T18:19:50.414Z,3.10
2022-08-16T18:22:37.615Z,3.10
2022-08-16T18:25:24.880Z,3.20
2022-08-16T18:28:12.131Z,3.33
2022-08-16T18:31:01.069Z,2.95
2022-08-16T18:33:55.864Z,3.05
2022-08-16T18:39:31.136Z,3.28
2022-08-16T18:42:18.569Z,3.10
2022-08-16T18:45:06.398Z,3.22
2022-08-16T18:47:53.700Z,2.97
2022-08-16T18:51:03.447Z,3.40
2022-08-16T18:53:50.706Z,3.00
2022-08-16T18:56:56.499Z,2.70
2022-08-16T18:59:44.993Z,3.00
2022-08-16T19:02:56.780Z,3.10
2022-08-16T19:05:42.895Z,3.10
2022-08-16T19:11:23.467Z,3.05
2022-08-16T19:14:10.898Z,3.00
2022-08-16T19:16:58.373Z,3.53
2022-08-16T19:19:45.705Z,3.60
2022-08-16T19:22:59.395Z,3.17
2022-08-16T19:25:46.734Z,3.38
2022-08-16T19:28:52.004Z,3.70
2022-08-16T19:34:33.637Z,3.08
2022-08-16T19:37:22.348Z,3.60
2022-08-16T19:40:36.026Z,3.25
2022-08-16T19:43:21.878Z,3.55
2022-08-16T19:46:09.176Z,3.50
2022-08-16T19:48:56.957Z,3.67
2022-08-16T19:51:49.018Z,3.60
2022-08-16T19:54:40.507Z,3.63
2022-08-16T19:57:29.460Z,3.63
2022-08-16T20:00:18.931Z,3.97
2022-08-16T20:03:12.732Z,3.78
2022-08-16T20:05:59.950Z,3.80
2022-08-16T20:08:47.202Z,3.95
2022-08-16T20:11:35.435Z,3.92
2022-08-16T20:14:25.401Z,4.00
2022-08-16T20:17:14.287Z,4.07
2022-08-16T20:20:01.841Z,4.57
2022-08-16T20:23:02.639Z,4.40
2022-08-16T20:25:52.060Z,4.13
2022-08-16T20:28:52.545Z,4.38
2022-08-16T20:31:41.656Z,3.97
2022-08-16T20:34:29.003Z,3.75
2022-08-16T20:37:16.624Z,4.35
2022-08-16T20:40:29.601Z,4.32
2022-08-16T20:43:16.753Z,4.63
2022-08-16T20:46:04.466Z,4.50
2022-08-16T20:48:51.889Z,4.22
2022-08-16T20:51:46.873Z,4.40
2022-08-16T20:54:37.764Z,5.00
2022-08-16T20:57:25.265Z,4.30
2022-08-16T21:00:14.139Z,4.20
2022-08-16T21:03:10.272Z,4.90
2022-08-16T21:05:58.577Z,4.60
2022-08-16T21:08:51.914Z,4.43
2022-08-16T21:11:40.982Z,4.97
2022-08-16T21:14:29.386Z,4.80
2022-08-16T21:17:17.225Z,4.93
2022-08-16T21:20:05.806Z,4.57
2022-08-16T21:22:59.305Z,4.65
2022-08-16T21:25:57.897Z,4.55
2022-08-16T21:28:46.028Z,4.93
2022-08-16T21:31:33.257Z,4.70
2022-08-16T21:34:20.474Z,4.90
2022-08-16T21:37:07.797Z,4.97
2022-08-16T21:39:55.191Z,5.13
2022-08-16T21:42:43.325Z,5.05
2022-08-16T21:45:30.792Z,4.85
2022-08-16T21:48:18.089Z,4.90
2022-08-16T21:51:23.983Z,5.20
2022-08-16T21:54:11.299Z,4.57
2022-08-16T21:56:58.497Z,4.70
2022-08-16T21:59:45.628Z,5.30
2022-08-16T22:02:38.904Z,4.97
2022-08-16T22:05:26.375Z,4.88
2022-08-16T22:08:16.640Z,5.00
2022-08-16T22:11:08.317Z,5.40
2022-08-16T22:13:58.643Z,5.05
2022-08-16T22:16:49.321Z,4.60
2022-08-16T22:19:37.214Z,4.60
2022-08-16T22:22:25.698Z,4.78
2022-08-16T22:25:23.325Z,4.88
2022-08-16T22:28:11.411Z,4.78
2022-08-16T22:30:58.656Z,5.00
2022-08-16T22:33:46.604Z,4.40
2022-08-16T22:36:34.949Z,4.55
2022-08-16T22:39:22.261Z,4.68
2022-08-16T22:42:10.663Z,5.35
2022-08-16T22:44:58.338Z,4.90
2022-08-16T22:47:46.029Z,5.00
2022-08-16T22:50:34.966Z,5.38
2022-08-16T22:53:22.098Z,5.07
2022-08-16T22:56:09.428Z,4.85
2022-08-16T22:58:59.614Z,5.05
2022-08-16T23:01:47.108Z,4.60
2022-08-16T23:04:34.436Z,4.85
2022-08-16T23:07:21.789Z,4.72
2022-08-16T23:10:09.702Z,4.65
2022-08-16T23:13:00.696Z,4.68
2022-08-16T23:21:27.492Z,4.70
2022-08-16T23:24:17.532Z,4.20
2022-08-16T23:27:07.329Z,4.17
2022-08-16T23:29:54.545Z,5.10
2022-08-16T23:32:47.319Z,4.60
2022-08-16T23:35:45.665Z,4.22
2022-08-16T23:38:38.853Z,4.13
2022-08-16T23:41:26.427Z,3.90
2022-08-16T23:44:56.923Z,3.50
2022-08-16T23:47:20.951Z,3.75
2022-08-16T23:50:08.776Z,3.95
2022-08-16T23:53:01.332Z,4.60
2022-08-16T23:55:52.446Z,4.07
